Karinya Fr699 — MAUA8 — position and weather

sailwx.info

Track history (hours):
 
Tides and Currents Weather Stations Pressure Air Temp Water Temp Dewpoint Dewpoint Depression Visibility Wind Speed Wind Dir Waves Ship Positions

Karinya Fr699

Last reported at 2014-Sep-28 19:33 UTC. Time now 2014-Oct-01 00:04 UTC.
Position N 57°46' W 001°47'.

Length 16 m.

MMSI: 235018981.

Date/timePositionNaut miles runAvg speedWind from/ knotsBaromVisibWave heightAir tempDewpointWater temp
2014-Sep-28 19:33N 57°46' W 001°47'7 7.2
2014-Sep-28 18:34N 57°42' W 001°58'1 1.0
2014-Sep-28 17:33N 57°42' W 002°00'  
2014-Sep-26 01:34N 57°41' W 002°00'0 0.0
2014-Sep-26 00:33N 57°41' W 002°00'5 5.2
2014-Sep-25 23:33N 57°43' W 001°51'  
2014-Sep-21 21:13N 57°45' W 001°45'6 8.5
2014-Sep-21 20:33N 57°43' W 001°54'3 3.4
2014-Sep-21 19:33N 57°41' W 001°60'  
Track history (hours):
 
Tides and Currents Weather Stations Pressure Air Temp Water Temp Dewpoint Dewpoint Depression Visibility Wind Speed Wind Dir Waves Ship Positions

Karinya Fr699

Last reported at 2014-Sep-28 19:33 UTC. Time now 2014-Oct-01 00:04 UTC.
Position N 57°46' W 001°47'.

Length 16 m.

MMSI: 235018981.

Date/timePositionNaut miles runAvg speedWind from/ knotsBaromVisibWave heightAir tempDewpointWater temp
2014-Sep-28 19:33N 57°46' W 001°47'7 7.2
2014-Sep-28 18:34N 57°42' W 001°58'1 1.0
2014-Sep-28 17:33N 57°42' W 002°00'  
2014-Sep-26 01:34N 57°41' W 002°00'0 0.0
2014-Sep-26 00:33N 57°41' W 002°00'5 5.2
2014-Sep-25 23:33N 57°43' W 001°51'  
2014-Sep-21 21:13N 57°45' W 001°45'6 8.5
2014-Sep-21 20:33N 57°43' W 001°54'3 3.4
2014-Sep-21 19:33N 57°41' W 001°60'  

Dump ship's entire track history